KISP/ISP METAR and TAF weather

Enter ICAO airport designator
Station Type Date Time Source
KISP METAR 2019/07/20 04:56 UTC NOAA

KISP 200456Z AUTO 23008KT 10SM CLR 27/25 A2983 RMK AO2 SLP101 T02720250 402830206


Station Type Date Time Source
KISP Decoded METAR 2019/07/20 04:56 UTC NOAA

ISLIP LONG ISLAND MAC ART, NY, United States (KISP) 40-48N 073-06W 43M
Jul 20, 2019 - 12:56 AM EDT / 2019.07.20 0456 UTC
Wind: from the SW (230 degrees) at 9 MPH (8 KT):0
Visibility: 10 mile(s):0
Sky conditions: clear
Temperature: 81.0 F (27.2 C)
Dew Point: 77.0 F (25.0 C)
Relative Humidity: 87%
Pressure (altimeter): 29.83 in. Hg (1010 hPa)
ob: KISP 200456Z AUTO 23008KT 10SM CLR 27/25 A2983 RMK AO2 SLP101 T02720250 402830206
cycle: 5

Station Type Date Time Source
KISP TAF 2019/07/20 06:22 UTC NOAA

TAF KISP 200520Z 2006/2106 24005KT P6SM SCT250
FM201200 29007KT P6SM SCT250
FM201600 25008KT P6SM SCT060 SCT250
FM201900 22010KT P6SM SCT060 SCT250
FM202300 25007KT P6SM FEW060 SCT250

Example: see airport list